sensor_id;sensor_type;location;lat;lon;timestamp;P1;P2;P0
66149;PMS5003;52952;50.904;20.648;2022-08-02T00:00:17;41;35;24
66149;PMS5003;52952;50.904;20.648;2022-08-02T00:07:17;33;31;22
66149;PMS5003;52952;50.904;20.648;2022-08-02T00:14:17;33;31;22
66149;PMS5003;52952;50.904;20.648;2022-08-02T00:21:17;33;31;22
66149;PMS5003;52952;50.904;20.648;2022-08-02T00:28:16;33;31;22
66149;PMS5003;52952;50.904;20.648;2022-08-02T00:35:14;40;35;24
66149;PMS5003;52952;50.904;20.648;2022-08-02T00:42:07;40;35;24
66149;PMS5003;52952;50.904;20.648;2022-08-02T00:49:20;40;35;24
66149;PMS5003;52952;50.904;20.648;2022-08-02T00:56:15;40;35;24
66149;PMS5003;52952;50.904;20.648;2022-08-02T01:00:21;40;35;24
66149;PMS5003;52952;50.904;20.648;2022-08-02T01:07:06;36;33;23
66149;PMS5003;52952;50.904;20.648;2022-08-02T01:14:18;36;33;23
66149;PMS5003;52952;50.904;20.648;2022-08-02T01:42:07;41;34;24
66149;PMS5003;52952;50.904;20.648;2022-08-02T01:49:35;41;34;24
66149;PMS5003;52952;50.904;20.648;2022-08-02T01:56:23;41;34;24
66149;PMS5003;52952;50.904;20.648;2022-08-02T02:00:31;41;34;24
66149;PMS5003;52952;50.904;20.648;2022-08-02T02:07:10;41;35;24
66149;PMS5003;52952;50.904;20.648;2022-08-02T02:14:13;41;35;24
66149;PMS5003;52952;50.904;20.648;2022-08-02T02:21:04;41;35;24
66149;PMS5003;52952;50.904;20.648;2022-08-02T02:28:36;41;35;24
66149;PMS5003;52952;50.904;20.648;2022-08-02T02:35:03;45;38;25
66149;PMS5003;52952;50.904;20.648;2022-08-02T02:42:02;45;38;25
66149;PMS5003;52952;50.904;20.648;2022-08-02T02:49:26;45;38;25
66149;PMS5003;52952;50.904;20.648;2022-08-02T02:56:10;45;38;25
66149;PMS5003;52952;50.904;20.648;2022-08-02T03:00:15;45;38;25
66149;PMS5003;52952;50.904;20.648;2022-08-02T03:07:19;44;37;25
66149;PMS5003;52952;50.904;20.648;2022-08-02T03:14:02;44;37;25
66149;PMS5003;52952;50.904;20.648;2022-08-02T03:21:21;44;37;25
66149;PMS5003;52952;50.904;20.648;2022-08-02T03:28:17;44;37;25
66149;PMS5003;52952;50.904;20.648;2022-08-02T03:42:21;43;37;25
66149;PMS5003;52952;50.904;20.648;2022-08-02T03:49:19;43;37;25
66149;PMS5003;52952;50.904;20.648;2022-08-02T03:56:16;43;37;25
66149;PMS5003;52952;50.904;20.648;2022-08-02T04:00:06;43;37;25
66149;PMS5003;52952;50.904;20.648;2022-08-02T04:07:18;40;35;24
66149;PMS5003;52952;50.904;20.648;2022-08-02T04:14:23;40;35;24
66149;PMS5003;52952;50.904;20.648;2022-08-02T04:21:09;40;35;24
66149;PMS5003;52952;50.904;20.648;2022-08-02T04:28:22;40;35;24
66149;PMS5003;52952;50.904;20.648;2022-08-02T04:35:03;49;41;27
66149;PMS5003;52952;50.904;20.648;2022-08-02T04:42:05;49;41;27
66149;PMS5003;52952;50.904;20.648;2022-08-02T04:49:02;49;41;27
66149;PMS5003;52952;50.904;20.648;2022-08-02T04:56:04;49;41;27
66149;PMS5003;52952;50.904;20.648;2022-08-02T05:00:18;49;41;27
66149;PMS5003;52952;50.904;20.648;2022-08-02T05:07:02;47;40;28
66149;PMS5003;52952;50.904;20.648;2022-08-02T05:14:03;47;40;28
66149;PMS5003;52952;50.904;20.648;2022-08-02T05:21:04;47;40;28
66149;PMS5003;52952;50.904;20.648;2022-08-02T05:28:16;47;40;28
66149;PMS5003;52952;50.904;20.648;2022-08-02T05:42:07;48;40;27
66149;PMS5003;52952;50.904;20.648;2022-08-02T05:49:02;48;40;27
66149;PMS5003;52952;50.904;20.648;2022-08-02T05:56:59;48;40;27
66149;PMS5003;52952;50.904;20.648;2022-08-02T06:00:12;48;40;27
66149;PMS5003;52952;50.904;20.648;2022-08-02T06:07:36;47;40;24
66149;PMS5003;52952;50.904;20.648;2022-08-02T06:14:10;47;40;24
66149;PMS5003;52952;50.904;20.648;2022-08-02T06:21:21;47;40;24
66149;PMS5003;52952;50.904;20.648;2022-08-02T06:28:19;47;40;24
66149;PMS5003;52952;50.904;20.648;2022-08-02T06:35:13;47;40;25
66149;PMS5003;52952;50.904;20.648;2022-08-02T06:49:02;47;40;25
66149;PMS5003;52952;50.904;20.648;2022-08-02T06:56:08;47;40;25
66149;PMS5003;52952;50.904;20.648;2022-08-02T07:00:06;47;40;25
66149;PMS5003;52952;50.904;20.648;2022-08-02T07:07:14;48;40;24
66149;PMS5003;52952;50.904;20.648;2022-08-02T07:14:15;48;40;24
66149;PMS5003;52952;50.904;20.648;2022-08-02T07:21:05;48;40;24
66149;PMS5003;52952;50.904;20.648;2022-08-02T07:28:18;48;40;24
66149;PMS5003;52952;50.904;20.648;2022-08-02T07:42:03;42;37;22
66149;PMS5003;52952;50.904;20.648;2022-08-02T07:49:18;42;37;22
66149;PMS5003;52952;50.904;20.648;2022-08-02T07:56:05;42;37;22
66149;PMS5003;52952;50.904;20.648;2022-08-02T08:00:03;42;37;22
66149;PMS5003;52952;50.904;20.648;2022-08-02T08:14:15;40;34;22
66149;PMS5003;52952;50.904;20.648;2022-08-02T08:21:03;40;34;22
66149;PMS5003;52952;50.904;20.648;2022-08-02T08:28:05;40;34;22
66149;PMS5003;52952;50.904;20.648;2022-08-02T08:42:16;45;37;23
66149;PMS5003;52952;50.904;20.648;2022-08-02T08:49:29;45;37;23
66149;PMS5003;52952;50.904;20.648;2022-08-02T08:56:27;45;37;23
66149;PMS5003;52952;50.904;20.648;2022-08-02T09:00:12;45;37;23
66149;PMS5003;52952;50.904;20.648;2022-08-02T09:14:32;46;38;23
66149;PMS5003;52952;50.904;20.648;2022-08-02T09:21:07;46;38;23
66149;PMS5003;52952;50.904;20.648;2022-08-02T09:28:06;46;38;23
66149;PMS5003;52952;50.904;20.648;2022-08-02T09:35:37;46;38;23
66149;PMS5003;52952;50.904;20.648;2022-08-02T09:42:25;37;34;22
66149;PMS5003;52952;50.904;20.648;2022-08-02T09:49:22;37;34;22
66149;PMS5003;52952;50.904;20.648;2022-08-02T09:56:08;37;34;22
66149;PMS5003;52952;50.904;20.648;2022-08-02T10:00:15;37;34;22
66149;PMS5003;52952;50.904;20.648;2022-08-02T10:14:27;49;39;25
66149;PMS5003;52952;50.904;20.648;2022-08-02T10:21:02;49;39;25
66149;PMS5003;52952;50.904;20.648;2022-08-02T10:28:30;49;39;25
66149;PMS5003;52952;50.904;20.648;2022-08-02T10:35:03;49;39;25
66149;PMS5003;52952;50.904;20.648;2022-08-02T10:42:03;46;38;24
66149;PMS5003;52952;50.904;20.648;2022-08-02T10:49:50;46;38;24
66149;PMS5003;52952;50.904;20.648;2022-08-02T10:56:06;46;38;24
66149;PMS5003;52952;50.904;20.648;2022-08-02T11:00:40;46;38;24
66149;PMS5003;52952;50.904;20.648;2022-08-02T11:14:18;50;42;26
66149;PMS5003;52952;50.904;20.648;2022-08-02T11:28:07;50;42;26
66149;PMS5003;52952;50.904;20.648;2022-08-02T11:35:07;50;42;26
66149;PMS5003;52952;50.904;20.648;2022-08-02T11:42:07;48;40;25
66149;PMS5003;52952;50.904;20.648;2022-08-02T11:49:21;48;40;25
66149;PMS5003;52952;50.904;20.648;2022-08-02T11:56:02;48;40;25
66149;PMS5003;52952;50.904;20.648;2022-08-02T12:00:30;48;40;25
66149;PMS5003;52952;50.904;20.648;2022-08-02T12:07:16;48;40;25
66149;PMS5003;52952;50.904;20.648;2022-08-02T12:14:05;47;39;23
66149;PMS5003;52952;50.904;20.648;2022-08-02T12:21:22;47;39;23
66149;PMS5003;52952;50.904;20.648;2022-08-02T12:28:25;47;39;23
66149;PMS5003;52952;50.904;20.648;2022-08-02T12:35:17;47;39;23
66149;PMS5003;52952;50.904;20.648;2022-08-02T12:42:18;45;38;23
66149;PMS5003;52952;50.904;20.648;2022-08-02T12:49:32;45;38;23
66149;PMS5003;52952;50.904;20.648;2022-08-02T12:56:06;45;38;23
66149;PMS5003;52952;50.904;20.648;2022-08-02T13:00:38;45;38;23
66149;PMS5003;52952;50.904;20.648;2022-08-02T13:07:02;45;38;23
66149;PMS5003;52952;50.904;20.648;2022-08-02T13:14:04;40;36;23
66149;PMS5003;52952;50.904;20.648;2022-08-02T13:21:22;40;36;23
66149;PMS5003;52952;50.904;20.648;2022-08-02T13:28:18;40;36;23
66149;PMS5003;52952;50.904;20.648;2022-08-02T13:35:02;40;36;23
66149;PMS5003;52952;50.904;20.648;2022-08-02T13:42:06;32;31;20
66149;PMS5003;52952;50.904;20.648;2022-08-02T13:49:03;32;31;20
66149;PMS5003;52952;50.904;20.648;2022-08-02T13:56:19;32;31;20
66149;PMS5003;52952;50.904;20.648;2022-08-02T14:00:17;32;31;20
66149;PMS5003;52952;50.904;20.648;2022-08-02T14:07:16;32;31;20
66149;PMS5003;52952;50.904;20.648;2022-08-02T14:14:17;41;35;23
66149;PMS5003;52952;50.904;20.648;2022-08-02T14:21:16;41;35;23
66149;PMS5003;52952;50.904;20.648;2022-08-02T14:28:16;41;35;23
66149;PMS5003;52952;50.904;20.648;2022-08-02T14:35:06;41;35;23
66149;PMS5003;52952;50.904;20.648;2022-08-02T14:42:15;36;32;22
66149;PMS5003;52952;50.904;20.648;2022-08-02T14:49:03;36;32;22
66149;PMS5003;52952;50.904;20.648;2022-08-02T14:56:17;36;32;22
66149;PMS5003;52952;50.904;20.648;2022-08-02T15:00:03;36;32;22
66149;PMS5003;52952;50.904;20.648;2022-08-02T15:07:05;36;32;22
66149;PMS5003;52952;50.904;20.648;2022-08-02T15:21:16;52;43;27
66149;PMS5003;52952;50.904;20.648;2022-08-02T15:28:09;52;43;27
66149;PMS5003;52952;50.904;20.648;2022-08-02T15:35:18;52;43;27
66149;PMS5003;52952;50.904;20.648;2022-08-02T15:49:24;32;31;20
66149;PMS5003;52952;50.904;20.648;2022-08-02T15:56:15;32;31;20
66149;PMS5003;52952;50.904;20.648;2022-08-02T16:00:07;32;31;20
66149;PMS5003;52952;50.904;20.648;2022-08-02T16:07:17;32;31;20
66149;PMS5003;52952;50.904;20.648;2022-08-02T16:21:04;36;32;21
66149;PMS5003;52952;50.904;20.648;2022-08-02T16:28:17;36;32;21
66149;PMS5003;52952;50.904;20.648;2022-08-02T16:35:02;36;32;21
66149;PMS5003;52952;50.904;20.648;2022-08-02T16:49:02;45;36;24
66149;PMS5003;52952;50.904;20.648;2022-08-02T16:56:16;45;36;24
66149;PMS5003;52952;50.904;20.648;2022-08-02T17:00:24;45;36;24
66149;PMS5003;52952;50.904;20.648;2022-08-02T17:07:06;45;36;24
66149;PMS5003;52952;50.904;20.648;2022-08-02T17:21:19;56;47;30
66149;PMS5003;52952;50.904;20.648;2022-08-02T17:28:04;56;47;30
66149;PMS5003;52952;50.904;20.648;2022-08-02T17:35:11;56;47;30
66149;PMS5003;52952;50.904;20.648;2022-08-02T17:49:24;45;38;26
66149;PMS5003;52952;50.904;20.648;2022-08-02T17:56:17;45;38;26
66149;PMS5003;52952;50.904;20.648;2022-08-02T18:00:03;45;38;26
66149;PMS5003;52952;50.904;20.648;2022-08-02T18:07:15;45;38;26
66149;PMS5003;52952;50.904;20.648;2022-08-02T18:21:02;40;35;23
66149;PMS5003;52952;50.904;20.648;2022-08-02T18:28:06;40;35;23
66149;PMS5003;52952;50.904;20.648;2022-08-02T18:35:20;40;35;23
66149;PMS5003;52952;50.904;20.648;2022-08-02T18:49:02;43;37;26
66149;PMS5003;52952;50.904;20.648;2022-08-02T18:56:06;43;37;26
66149;PMS5003;52952;50.904;20.648;2022-08-02T19:00:18;43;37;26
66149;PMS5003;52952;50.904;20.648;2022-08-02T19:07:01;43;37;26
66149;PMS5003;52952;50.904;20.648;2022-08-02T19:21:16;49;41;27
66149;PMS5003;52952;50.904;20.648;2022-08-02T19:28:14;49;41;27
66149;PMS5003;52952;50.904;20.648;2022-08-02T19:35:01;49;41;27
66149;PMS5003;52952;50.904;20.648;2022-08-02T19:42:14;49;41;27
66149;PMS5003;52952;50.904;20.648;2022-08-02T19:49:14;48;40;26
66149;PMS5003;52952;50.904;20.648;2022-08-02T19:56:18;48;40;26
66149;PMS5003;52952;50.904;20.648;2022-08-02T20:00:11;48;40;26
66149;PMS5003;52952;50.904;20.648;2022-08-02T20:07:04;48;40;26
66149;PMS5003;52952;50.904;20.648;2022-08-02T20:21:18;42;36;26
66149;PMS5003;52952;50.904;20.648;2022-08-02T20:28:20;42;36;26
66149;PMS5003;52952;50.904;20.648;2022-08-02T20:35:16;42;36;26
66149;PMS5003;52952;50.904;20.648;2022-08-02T20:42:04;42;36;26
66149;PMS5003;52952;50.904;20.648;2022-08-02T20:49:19;49;41;27
66149;PMS5003;52952;50.904;20.648;2022-08-02T20:56:04;49;41;27
66149;PMS5003;52952;50.904;20.648;2022-08-02T21:00:12;49;41;27
66149;PMS5003;52952;50.904;20.648;2022-08-02T21:07:14;49;41;27
66149;PMS5003;52952;50.904;20.648;2022-08-02T21:21:18;51;42;26
66149;PMS5003;52952;50.904;20.648;2022-08-02T21:28:15;51;42;26
66149;PMS5003;52952;50.904;20.648;2022-08-02T21:35:17;51;42;26
66149;PMS5003;52952;50.904;20.648;2022-08-02T21:42:02;51;42;26
66149;PMS5003;52952;50.904;20.648;2022-08-02T21:49:27;45;39;27
66149;PMS5003;52952;50.904;20.648;2022-08-02T21:56:03;45;39;27
66149;PMS5003;52952;50.904;20.648;2022-08-02T22:00:01;45;39;27
66149;PMS5003;52952;50.904;20.648;2022-08-02T22:07:22;45;39;27
66149;PMS5003;52952;50.904;20.648;2022-08-02T22:14:16;44;38;26
66149;PMS5003;52952;50.904;20.648;2022-08-02T22:21:20;44;38;26
66149;PMS5003;52952;50.904;20.648;2022-08-02T22:28:02;44;38;26
66149;PMS5003;52952;50.904;20.648;2022-08-02T22:35:17;40;35;24
66149;PMS5003;52952;50.904;20.648;2022-08-02T22:42:16;40;35;24
66149;PMS5003;52952;50.904;20.648;2022-08-02T22:49:19;40;35;24
66149;PMS5003;52952;50.904;20.648;2022-08-02T22:56:18;40;35;24
66149;PMS5003;52952;50.904;20.648;2022-08-02T23:07:02;39;35;24
66149;PMS5003;52952;50.904;20.648;2022-08-02T23:14:14;39;35;24
66149;PMS5003;52952;50.904;20.648;2022-08-02T23:21:06;39;35;24
66149;PMS5003;52952;50.904;20.648;2022-08-02T23:28:16;39;35;24
66149;PMS5003;52952;50.904;20.648;2022-08-02T23:35:15;42;37;26
66149;PMS5003;52952;50.904;20.648;2022-08-02T23:42:02;42;37;26
66149;PMS5003;52952;50.904;20.648;2022-08-02T23:49:04;42;37;26
66149;PMS5003;52952;50.904;20.648;2022-08-02T23:56:07;42;37;26
